createdAt,value
2023-01-25T00:00:32.805Z,17.40
2023-01-25T00:03:00.332Z,17.40
2023-01-25T00:05:27.842Z,17.40
2023-01-25T00:07:55.354Z,17.40
2023-01-25T00:10:22.902Z,17.40
2023-01-25T00:12:50.404Z,17.40
2023-01-25T00:15:17.894Z,17.30
2023-01-25T00:17:45.404Z,17.20
2023-01-25T00:20:13.016Z,17.20
2023-01-25T00:22:40.601Z,17.20
2023-01-25T00:25:09.950Z,17.20
2023-01-25T00:27:38.359Z,17.30
2023-01-25T00:30:06.358Z,17.30
2023-01-25T00:32:48.942Z,17.40
2023-01-25T00:35:17.319Z,17.40
2023-01-25T00:37:47.323Z,17.50
2023-01-25T00:40:15.350Z,17.50
2023-01-25T00:42:42.880Z,17.50
2023-01-25T00:45:11.811Z,17.60
2023-01-25T00:47:40.506Z,17.60
2023-01-25T00:50:08.663Z,17.60
2023-01-25T00:52:39.450Z,17.60
2023-01-25T00:55:07.498Z,17.60
2023-01-25T00:57:35.585Z,17.70
2023-01-25T01:00:03.179Z,17.70
2023-01-25T01:02:32.351Z,17.70
2023-01-25T01:05:03.467Z,17.70
2023-01-25T01:07:31.066Z,17.80
2023-01-25T01:10:00.514Z,17.80
2023-01-25T01:12:28.430Z,17.90
2023-01-25T01:14:56.878Z,17.90
2023-01-25T01:17:25.152Z,17.90
2023-01-25T01:19:52.713Z,18.00
2023-01-25T01:22:21.148Z,18.10
2023-01-25T01:24:50.711Z,18.10
2023-01-25T01:27:18.780Z,18.10
2023-01-25T01:29:52.961Z,18.20
2023-01-25T01:32:20.855Z,18.20
2023-01-25T01:34:48.632Z,18.30
2023-01-25T01:37:16.461Z,18.30
2023-01-25T01:40:01.299Z,18.40
2023-01-25T01:46:13.452Z,18.60
2023-01-25T01:48:45.429Z,18.70
2023-01-25T01:51:13.024Z,18.70
2023-01-25T01:53:41.574Z,18.80
2023-01-25T01:56:14.019Z,18.80
2023-01-25T01:58:43.103Z,18.90
2023-01-25T02:01:10.943Z,18.90
2023-01-25T02:03:40.267Z,19.00
2023-01-25T02:06:16.590Z,19.00
2023-01-25T02:08:47.000Z,19.10
2023-01-25T02:11:15.350Z,19.10
2023-01-25T02:13:43.345Z,19.20
2023-01-25T02:16:17.551Z,19.20
2023-01-25T02:18:45.280Z,19.30
2023-01-25T02:25:32.622Z,19.40
2023-01-25T02:28:12.675Z,19.50
2023-01-25T02:30:42.302Z,19.60
2023-01-25T02:33:11.400Z,19.60
2023-01-25T02:35:56.736Z,19.70
2023-01-25T02:38:27.347Z,19.70
2023-01-25T02:41:25.049Z,19.80
2023-01-25T02:43:56.120Z,19.90
2023-01-25T02:46:45.202Z,19.90
2023-01-25T02:50:03.745Z,20.00
2023-01-25T02:52:34.079Z,20.10
2023-01-25T02:55:02.288Z,20.10
2023-01-25T02:57:40.249Z,20.10
2023-01-25T03:00:08.564Z,20.10
2023-01-25T03:02:36.211Z,20.20
2023-01-25T03:07:57.795Z,20.20
2023-01-25T03:10:26.499Z,20.30
2023-01-25T03:12:56.634Z,20.40
2023-01-25T03:15:27.541Z,20.40
2023-01-25T03:17:57.006Z,20.40
2023-01-25T03:20:33.419Z,20.50
2023-01-25T03:23:01.010Z,20.60
2023-01-25T03:25:28.785Z,20.60
2023-01-25T03:27:57.363Z,20.70
2023-01-25T03:30:28.290Z,20.80
2023-01-25T03:32:58.579Z,20.80
2023-01-25T03:35:26.435Z,20.90
2023-01-25T03:37:55.159Z,20.90
2023-01-25T03:40:24.001Z,21.00
2023-01-25T03:42:53.731Z,21.00
2023-01-25T03:45:22.047Z,21.10
2023-01-25T03:47:50.120Z,21.10
2023-01-25T03:50:18.060Z,21.10
2023-01-25T03:52:51.045Z,21.10
2023-01-25T03:55:19.537Z,21.20
2023-01-25T03:57:50.200Z,21.20
2023-01-25T04:00:23.307Z,21.30
2023-01-25T04:03:06.183Z,21.30
2023-01-25T04:05:34.334Z,21.40
2023-01-25T04:08:02.041Z,21.40
2023-01-25T04:10:30.025Z,21.40
2023-01-25T04:12:58.947Z,21.60
2023-01-25T04:15:27.826Z,21.60
2023-01-25T04:17:58.727Z,21.70
2023-01-25T04:20:28.300Z,21.80
2023-01-25T04:22:58.892Z,21.80
2023-01-25T04:25:28.439Z,21.90
2023-01-25T04:31:09.359Z,21.90
2023-01-25T04:34:21.740Z,21.90
2023-01-25T04:37:46.676Z,22.00
2023-01-25T04:40:27.988Z,22.00
2023-01-25T04:45:58.192Z,22.20
2023-01-25T04:48:39.532Z,22.30
2023-01-25T04:54:21.140Z,22.40
2023-01-25T04:56:55.858Z,22.40
2023-01-25T04:59:24.705Z,22.50
2023-01-25T05:01:53.792Z,22.50
2023-01-25T05:04:23.491Z,22.50
2023-01-25T05:06:51.421Z,22.50
2023-01-25T05:09:24.518Z,22.50
2023-01-25T05:11:52.640Z,22.50
2023-01-25T05:14:23.586Z,22.50
2023-01-25T05:16:51.487Z,22.60
2023-01-25T05:19:26.547Z,22.70
2023-01-25T05:22:08.628Z,22.70
2023-01-25T05:24:39.885Z,22.80
2023-01-25T05:27:09.227Z,22.80
2023-01-25T05:29:39.099Z,22.80
2023-01-25T05:32:17.396Z,22.90
2023-01-25T05:34:45.608Z,22.90
2023-01-25T05:37:14.737Z,22.90
2023-01-25T05:39:42.817Z,23.00
2023-01-25T05:42:13.165Z,23.00
2023-01-25T05:44:42.021Z,23.00
2023-01-25T05:47:16.021Z,23.10
2023-01-25T05:49:44.820Z,23.10
2023-01-25T05:52:16.862Z,23.10
2023-01-25T05:54:44.600Z,23.20
2023-01-25T05:57:14.057Z,23.20
2023-01-25T05:59:41.634Z,23.20
2023-01-25T06:02:09.410Z,23.20
2023-01-25T06:04:37.901Z,23.30
2023-01-25T06:07:05.440Z,23.30
2023-01-25T06:09:33.292Z,23.40
2023-01-25T06:12:01.785Z,23.40
2023-01-25T06:14:29.381Z,23.50
2023-01-25T06:16:57.721Z,23.60
2023-01-25T06:19:25.348Z,23.60
2023-01-25T06:21:53.951Z,23.70
2023-01-25T06:24:21.694Z,23.70
2023-01-25T06:26:49.430Z,23.70
2023-01-25T06:29:20.360Z,23.80
2023-01-25T06:31:48.991Z,23.80
2023-01-25T06:34:17.805Z,23.80
2023-01-25T06:36:46.839Z,23.80
2023-01-25T06:39:14.933Z,23.80
2023-01-25T06:41:43.001Z,23.80
2023-01-25T06:44:10.558Z,23.80
2023-01-25T06:46:39.879Z,23.80
2023-01-25T06:49:08.367Z,23.90
2023-01-25T06:51:36.332Z,24.00
2023-01-25T06:54:07.315Z,24.00
2023-01-25T06:56:34.951Z,24.00
2023-01-25T06:59:02.575Z,24.00
2023-01-25T07:01:30.740Z,24.10
2023-01-25T07:04:00.156Z,24.10
2023-01-25T07:06:32.555Z,24.10
2023-01-25T07:09:06.893Z,24.10
2023-01-25T07:11:34.624Z,24.10
2023-01-25T07:14:03.577Z,24.10
2023-01-25T07:16:37.063Z,24.20
2023-01-25T07:19:05.305Z,24.20
2023-01-25T07:21:32.843Z,24.30
2023-01-25T07:24:03.283Z,24.20
2023-01-25T07:26:32.544Z,24.30
2023-01-25T07:29:00.444Z,24.30
2023-01-25T07:31:28.941Z,24.40
2023-01-25T07:33:57.393Z,24.40
2023-01-25T07:36:25.186Z,24.40
2023-01-25T07:38:56.829Z,24.50
2023-01-25T07:41:25.303Z,24.50
2023-01-25T07:43:53.626Z,24.50
2023-01-25T07:46:21.744Z,24.50
2023-01-25T07:48:50.786Z,24.50
2023-01-25T07:51:27.022Z,24.50
2023-01-25T07:54:05.587Z,24.50
2023-01-25T07:56:35.509Z,24.60
2023-01-25T07:59:07.835Z,24.60
2023-01-25T08:01:37.576Z,24.60
2023-01-25T08:04:06.234Z,24.60
2023-01-25T08:06:39.680Z,24.60
2023-01-25T08:09:20.214Z,24.60
2023-01-25T08:11:50.772Z,24.60
2023-01-25T08:14:18.443Z,24.60
2023-01-25T08:16:46.317Z,24.60
2023-01-25T08:19:15.440Z,24.70
2023-01-25T08:21:43.096Z,24.70
2023-01-25T08:24:17.586Z,24.70
2023-01-25T08:26:46.971Z,24.70
2023-01-25T08:29:14.731Z,24.70
2023-01-25T08:31:44.219Z,24.80
2023-01-25T08:34:12.712Z,24.80
2023-01-25T08:39:28.380Z,24.80
2023-01-25T08:41:57.630Z,24.80
2023-01-25T08:44:28.892Z,24.90
2023-01-25T08:46:57.398Z,24.90
2023-01-25T08:49:25.353Z,24.90
2023-01-25T08:51:53.300Z,24.90
2023-01-25T08:54:24.657Z,24.90
2023-01-25T08:56:52.519Z,25.00
2023-01-25T08:59:23.217Z,25.00
2023-01-25T09:01:51.141Z,24.90
2023-01-25T09:04:18.864Z,24.90
2023-01-25T09:06:47.188Z,24.90
2023-01-25T09:09:14.863Z,24.90
2023-01-25T09:11:45.114Z,24.90
2023-01-25T09:14:13.124Z,24.90
2023-01-25T09:16:41.297Z,24.80
2023-01-25T09:19:08.876Z,24.80
2023-01-25T09:21:38.991Z,24.80
2023-01-25T09:24:08.085Z,24.80
2023-01-25T09:26:38.699Z,24.80
2023-01-25T09:29:08.430Z,24.80
2023-01-25T09:31:38.391Z,24.80
2023-01-25T09:34:06.184Z,24.80
2023-01-25T09:36:34.936Z,24.80
2023-01-25T09:39:02.565Z,24.80
2023-01-25T09:41:45.464Z,24.80
2023-01-25T09:44:31.803Z,24.80
2023-01-25T09:47:02.317Z,24.80
2023-01-25T09:49:31.415Z,24.80
2023-01-25T09:52:17.634Z,24.80
2023-01-25T09:54:49.807Z,24.80
2023-01-25T09:57:22.849Z,24.70
2023-01-25T09:59:52.518Z,24.70
2023-01-25T10:02:38.896Z,24.70
2023-01-25T10:05:09.913Z,24.70
2023-01-25T10:07:41.484Z,24.70
2023-01-25T10:10:15.027Z,24.60
2023-01-25T10:12:42.636Z,24.60
2023-01-25T10:15:24.562Z,24.60
2023-01-25T10:18:11.351Z,24.60
2023-01-25T10:20:43.399Z,24.60
2023-01-25T10:23:14.031Z,24.60
2023-01-25T10:25:46.947Z,24.50
2023-01-25T10:28:34.548Z,24.50
2023-01-25T10:31:03.578Z,24.50
2023-01-25T10:33:35.134Z,24.50
2023-01-25T10:36:06.252Z,24.50
2023-01-25T10:38:40.010Z,24.40
2023-01-25T10:41:16.361Z,24.40
2023-01-25T10:43:44.186Z,24.40
2023-01-25T10:46:26.681Z,24.40
2023-01-25T10:48:54.548Z,24.30
2023-01-25T10:51:32.807Z,24.30
2023-01-25T10:54:02.777Z,24.30
2023-01-25T10:56:33.661Z,24.30
2023-01-25T10:59:27.164Z,24.30
2023-01-25T11:01:55.268Z,24.20
2023-01-25T11:04:36.338Z,24.20
2023-01-25T11:07:08.076Z,24.10
2023-01-25T11:09:37.404Z,24.10
2023-01-25T11:12:05.977Z,24.10
2023-01-25T11:14:34.150Z,24.00
2023-01-25T11:17:03.758Z,24.00
2023-01-25T11:19:35.270Z,24.00
2023-01-25T11:22:05.448Z,23.90
2023-01-25T11:24:34.924Z,23.90
2023-01-25T11:27:22.631Z,23.80
2023-01-25T11:30:06.540Z,23.80
2023-01-25T11:32:34.155Z,23.80
2023-01-25T11:35:01.803Z,23.70
2023-01-25T11:37:43.741Z,23.70
2023-01-25T11:40:30.618Z,23.60
2023-01-25T11:43:07.540Z,23.60
2023-01-25T11:45:42.273Z,23.60
2023-01-25T11:48:16.899Z,23.60
2023-01-25T11:50:53.943Z,23.50
2023-01-25T11:53:27.459Z,23.50
2023-01-25T11:56:14.037Z,23.50
2023-01-25T11:58:50.925Z,23.50
2023-01-25T12:01:33.468Z,23.40
2023-01-25T12:04:10.334Z,23.40
2023-01-25T12:06:49.671Z,23.40
2023-01-25T12:09:30.653Z,23.40
2023-01-25T12:12:00.999Z,23.30
2023-01-25T12:14:47.276Z,23.30
2023-01-25T12:17:24.103Z,23.30
2023-01-25T12:20:14.919Z,23.20
2023-01-25T12:22:42.433Z,23.20
2023-01-25T12:25:25.557Z,23.20
2023-01-25T12:28:15.766Z,23.10
2023-01-25T12:30:43.501Z,23.10
2023-01-25T12:33:23.437Z,23.00
2023-01-25T12:36:09.431Z,22.90
2023-01-25T12:38:41.507Z,22.90
2023-01-25T12:41:15.277Z,22.90
2023-01-25T12:43:47.104Z,22.80
2023-01-25T12:46:22.417Z,22.80
2023-01-25T12:48:52.766Z,22.80
2023-01-25T12:51:22.156Z,22.70
2023-01-25T12:53:52.071Z,22.70
2023-01-25T12:56:44.086Z,22.60
2023-01-25T12:59:14.716Z,22.60
2023-01-25T13:02:12.310Z,22.60
2023-01-25T13:04:47.404Z,22.60
2023-01-25T13:07:43.889Z,22.50
2023-01-25T13:10:40.547Z,22.50
2023-01-25T13:13:27.633Z,22.50
2023-01-25T13:15:55.966Z,22.40
2023-01-25T13:18:29.780Z,22.40
2023-01-25T13:20:58.692Z,22.40
2023-01-25T13:23:33.796Z,22.40
2023-01-25T13:26:20.315Z,22.30
2023-01-25T13:28:48.947Z,22.30
2023-01-25T13:31:50.706Z,22.20
2023-01-25T13:34:40.357Z,22.20
2023-01-25T13:37:21.563Z,22.20
2023-01-25T13:39:51.360Z,22.10
2023-01-25T13:42:22.833Z,22.10
2023-01-25T13:44:51.928Z,22.10
2023-01-25T13:47:22.540Z,22.10
2023-01-25T13:49:56.723Z,22.00
2023-01-25T13:52:25.346Z,21.90
2023-01-25T13:54:55.138Z,21.90
2023-01-25T13:57:28.457Z,21.80
2023-01-25T14:00:09.839Z,21.80
2023-01-25T14:02:40.480Z,21.70
2023-01-25T14:05:18.174Z,21.60
2023-01-25T14:07:47.479Z,21.60
2023-01-25T14:10:16.563Z,21.60
2023-01-25T14:12:45.449Z,21.50
2023-01-25T14:15:18.937Z,21.40
2023-01-25T14:17:46.659Z,21.40
2023-01-25T14:20:21.685Z,21.30
2023-01-25T14:22:50.115Z,21.30
2023-01-25T14:25:22.647Z,21.20
2023-01-25T14:27:57.210Z,21.20
2023-01-25T14:30:29.052Z,21.10
2023-01-25T14:32:58.742Z,21.00
2023-01-25T14:35:43.159Z,21.00
2023-01-25T14:38:23.354Z,21.00
2023-01-25T14:40:52.435Z,20.90
2023-01-25T14:43:20.157Z,20.90
2023-01-25T14:45:47.757Z,20.90
2023-01-25T14:48:45.338Z,20.80
2023-01-25T14:51:15.194Z,20.80
2023-01-25T14:53:44.954Z,20.70
2023-01-25T14:56:19.239Z,20.70
2023-01-25T14:58:50.984Z,20.70
2023-01-25T15:01:33.404Z,20.70
2023-01-25T15:04:01.226Z,20.70
2023-01-25T15:06:28.818Z,20.60
2023-01-25T15:08:56.390Z,20.60
2023-01-25T15:11:36.551Z,20.60
2023-01-25T15:14:08.485Z,20.50
2023-01-25T15:16:37.630Z,20.50
2023-01-25T15:19:21.083Z,20.40
2023-01-25T15:21:48.904Z,20.40
2023-01-25T15:24:17.045Z,20.40
2023-01-25T15:26:49.375Z,20.40
2023-01-25T15:29:20.604Z,20.40
2023-01-25T15:31:49.970Z,20.30
2023-01-25T15:34:20.986Z,20.30
2023-01-25T15:36:48.926Z,20.30
2023-01-25T15:39:17.797Z,20.30
2023-01-25T15:41:45.927Z,20.30
2023-01-25T15:44:14.124Z,20.30
2023-01-25T15:46:43.345Z,20.30
2023-01-25T15:49:14.204Z,20.20
2023-01-25T15:51:41.746Z,20.20
2023-01-25T15:54:09.549Z,20.20
2023-01-25T15:56:38.146Z,20.20
2023-01-25T15:59:09.809Z,20.10
2023-01-25T16:01:38.284Z,20.10
2023-01-25T16:04:06.760Z,20.10
2023-01-25T16:06:41.684Z,20.10
2023-01-25T16:09:25.653Z,20.10
2023-01-25T16:11:54.717Z,20.10
2023-01-25T16:14:23.945Z,20.00
2023-01-25T16:16:53.156Z,20.00
2023-01-25T16:19:23.036Z,20.00
2023-01-25T16:21:50.801Z,20.00
2023-01-25T16:24:19.888Z,19.90
2023-01-25T16:26:52.861Z,19.90
2023-01-25T16:29:20.481Z,19.90
2023-01-25T16:31:48.948Z,19.90
2023-01-25T16:34:17.577Z,19.90
2023-01-25T16:36:50.513Z,19.90
2023-01-25T16:39:20.238Z,20.00
2023-01-25T16:41:48.002Z,20.00
2023-01-25T16:44:16.323Z,20.00
2023-01-25T16:46:44.208Z,20.10
2023-01-25T16:49:16.643Z,20.10
2023-01-25T16:51:46.682Z,20.20
2023-01-25T16:54:14.461Z,20.20
2023-01-25T16:56:42.019Z,20.20
2023-01-25T16:59:10.770Z,20.30
2023-01-25T17:01:40.291Z,20.30
2023-01-25T17:04:08.178Z,20.40
2023-01-25T17:06:36.924Z,20.40
2023-01-25T17:09:20.478Z,20.40
2023-01-25T17:11:49.392Z,20.40
2023-01-25T17:14:19.066Z,20.50
2023-01-25T17:16:48.632Z,20.50
2023-01-25T17:19:17.198Z,20.50
2023-01-25T17:21:46.155Z,20.50
2023-01-25T17:24:14.954Z,20.50
2023-01-25T17:26:43.370Z,20.40
2023-01-25T17:29:11.951Z,20.50
2023-01-25T17:31:40.873Z,20.40
2023-01-25T17:34:09.024Z,20.40
2023-01-25T17:36:37.348Z,20.40
2023-01-25T17:39:07.130Z,20.40
2023-01-25T17:41:34.760Z,20.30
2023-01-25T17:44:03.294Z,20.30
2023-01-25T17:46:34.148Z,20.30
2023-01-25T17:49:03.201Z,20.20
2023-01-25T17:51:31.838Z,20.20
2023-01-25T17:53:59.834Z,20.30
2023-01-25T17:56:27.378Z,20.20
2023-01-25T17:58:55.157Z,20.30
2023-01-25T18:01:28.609Z,20.30
2023-01-25T18:03:56.814Z,20.30
2023-01-25T18:06:25.713Z,20.30
2023-01-25T18:08:54.647Z,20.20
2023-01-25T18:11:26.230Z,20.20
2023-01-25T18:13:58.070Z,20.20
2023-01-25T18:16:26.627Z,20.20
2023-01-25T18:18:55.483Z,20.10
2023-01-25T18:21:26.657Z,20.10
2023-01-25T18:24:06.286Z,20.10
2023-01-25T18:26:35.742Z,20.10
2023-01-25T18:29:20.349Z,20.10
2023-01-25T18:31:49.061Z,20.10
2023-01-25T18:34:16.644Z,20.10
2023-01-25T18:36:44.941Z,20.10
2023-01-25T18:39:12.421Z,20.00
2023-01-25T18:41:39.884Z,20.00
2023-01-25T18:44:07.464Z,19.90
2023-01-25T18:46:35.887Z,19.90
2023-01-25T18:49:03.379Z,19.90
2023-01-25T18:51:30.997Z,19.90
2023-01-25T18:53:58.494Z,19.90
2023-01-25T18:56:27.579Z,19.90
2023-01-25T18:58:59.232Z,19.90
2023-01-25T19:01:26.792Z,19.80
2023-01-25T19:03:54.361Z,19.80
2023-01-25T19:06:21.867Z,19.80
2023-01-25T19:08:54.601Z,19.80
2023-01-25T19:11:23.186Z,19.80
2023-01-25T19:13:51.123Z,19.70
2023-01-25T19:16:21.056Z,19.80
2023-01-25T19:18:50.946Z,19.80
2023-01-25T19:21:21.131Z,19.80
2023-01-25T19:23:49.026Z,19.80
2023-01-25T19:26:18.471Z,19.70
2023-01-25T19:28:47.440Z,19.70
2023-01-25T19:31:16.591Z,19.70
2023-01-25T19:33:45.626Z,19.70
2023-01-25T19:36:16.608Z,19.70
2023-01-25T19:38:46.505Z,19.70
2023-01-25T19:41:15.659Z,19.70
2023-01-25T19:43:43.841Z,19.70
2023-01-25T19:46:11.408Z,19.70
2023-01-25T19:48:39.770Z,19.70
2023-01-25T19:51:14.670Z,19.60
2023-01-25T19:53:49.798Z,19.60
2023-01-25T19:56:17.998Z,19.60
2023-01-25T19:58:47.311Z,19.50
2023-01-25T20:01:15.045Z,19.50
2023-01-25T20:03:42.725Z,19.40
2023-01-25T20:06:11.193Z,19.40
2023-01-25T20:08:39.502Z,19.30
2023-01-25T20:11:18.723Z,19.30
2023-01-25T20:13:46.788Z,19.30
2023-01-25T20:16:17.294Z,19.30
2023-01-25T20:18:45.668Z,19.20
2023-01-25T20:21:14.487Z,19.20
2023-01-25T20:23:43.298Z,19.20
2023-01-25T20:26:15.344Z,19.30
2023-01-25T20:28:44.457Z,19.30
2023-01-25T20:31:19.552Z,19.30
2023-01-25T20:33:47.285Z,19.30
2023-01-25T20:36:14.935Z,19.30
2023-01-25T20:38:42.748Z,19.30
2023-01-25T20:41:14.655Z,19.30
2023-01-25T20:43:49.286Z,19.30
2023-01-25T20:46:17.173Z,19.30
2023-01-25T20:48:45.061Z,19.30
2023-01-25T20:51:14.836Z,19.30
2023-01-25T20:53:42.701Z,19.30
2023-01-25T20:56:10.469Z,19.20
2023-01-25T20:58:38.190Z,19.20
2023-01-25T21:01:12.941Z,19.20
2023-01-25T21:03:40.788Z,19.20
2023-01-25T21:06:08.757Z,19.20
2023-01-25T21:08:37.166Z,19.20
2023-01-25T21:11:05.335Z,19.10
2023-01-25T21:13:32.991Z,19.10
2023-01-25T21:16:05.203Z,19.10
2023-01-25T21:18:35.769Z,19.00
2023-01-25T21:21:05.271Z,19.00
2023-01-25T21:23:34.365Z,18.90
2023-01-25T21:26:03.337Z,18.90
2023-01-25T21:28:30.923Z,18.90
2023-01-25T21:30:59.857Z,18.90
2023-01-25T21:33:27.391Z,18.90
2023-01-25T21:35:55.957Z,18.90
2023-01-25T21:38:25.386Z,18.90
2023-01-25T21:40:53.007Z,18.90
2023-01-25T21:43:20.470Z,18.90
2023-01-25T21:46:06.948Z,18.80
2023-01-25T21:48:52.526Z,18.80
2023-01-25T21:51:39.844Z,18.80
2023-01-25T21:54:07.345Z,18.70
2023-01-25T21:56:35.089Z,18.70
2023-01-25T21:59:02.744Z,18.70
2023-01-25T22:01:30.516Z,18.60
2023-01-25T22:03:58.068Z,18.60
2023-01-25T22:06:25.620Z,18.60
2023-01-25T22:08:54.089Z,18.50
2023-01-25T22:11:21.796Z,18.40
2023-01-25T22:13:49.326Z,18.40
2023-01-25T22:16:17.683Z,18.30
2023-01-25T22:18:46.049Z,18.20
2023-01-25T22:21:16.845Z,18.20
2023-01-25T22:23:45.357Z,18.10
2023-01-25T22:26:14.848Z,18.10
2023-01-25T22:28:48.580Z,18.10
2023-01-25T22:31:17.697Z,18.00
2023-01-25T22:33:46.025Z,18.00
2023-01-25T22:36:14.327Z,18.00
2023-01-25T22:38:42.105Z,17.90
2023-01-25T22:41:10.872Z,17.90
2023-01-25T22:43:38.767Z,17.90
2023-01-25T22:46:07.861Z,17.90
2023-01-25T22:48:35.427Z,17.90
2023-01-25T22:51:03.995Z,17.80
2023-01-25T22:53:31.670Z,17.80
2023-01-25T22:56:02.840Z,17.80
2023-01-25T22:58:31.112Z,17.80
2023-01-25T23:00:59.569Z,17.80
2023-01-25T23:03:27.180Z,17.70
2023-01-25T23:06:01.711Z,17.80
2023-01-25T23:08:32.784Z,17.80
2023-01-25T23:11:01.721Z,17.80
2023-01-25T23:13:29.212Z,17.80
2023-01-25T23:15:56.801Z,17.80
2023-01-25T23:18:42.683Z,17.80
2023-01-25T23:21:10.200Z,17.80
2023-01-25T23:23:37.849Z,17.80
2023-01-25T23:26:06.227Z,17.80
2023-01-25T23:28:33.824Z,17.70
2023-01-25T23:31:18.103Z,17.80
2023-01-25T23:33:46.437Z,17.80
2023-01-25T23:36:15.091Z,17.80
2023-01-25T23:38:44.200Z,17.80
2023-01-25T23:41:12.526Z,17.80
2023-01-25T23:43:40.254Z,17.80
2023-01-25T23:46:08.143Z,17.70
2023-01-25T23:48:35.775Z,17.70
2023-01-25T23:51:03.412Z,17.70
2023-01-25T23:53:32.653Z,17.70
2023-01-25T23:56:06.204Z,17.70
2023-01-25T23:58:35.043Z,17.70
